sensor_id;sensor_type;location;lat;lon;timestamp;pressure;altitude;pressure_sealevel;temperature;humidity
52249;BME280;38541;48.130;8.378;2024-01-25T00:00:06;93936.84;;;7.63;75.06
52249;BME280;38541;48.130;8.378;2024-01-25T00:02:33;93931.56;;;7.70;75.10
52249;BME280;38541;48.130;8.378;2024-01-25T00:04:59;93936.59;;;7.71;75.00
52249;BME280;38541;48.130;8.378;2024-01-25T00:07:26;93927.91;;;7.71;74.83
52249;BME280;38541;48.130;8.378;2024-01-25T00:09:53;93930.34;;;7.73;75.15
52249;BME280;38541;48.130;8.378;2024-01-25T00:12:19;93922.84;;;7.76;74.84
52249;BME280;38541;48.130;8.378;2024-01-25T00:14:46;93929.94;;;7.69;74.18
52249;BME280;38541;48.130;8.378;2024-01-25T00:17:12;93927.50;;;7.74;74.58
52249;BME280;38541;48.130;8.378;2024-01-25T00:19:39;93925.53;;;7.69;73.84
52249;BME280;38541;48.130;8.378;2024-01-25T00:22:07;93933.78;;;7.66;74.08
52249;BME280;38541;48.130;8.378;2024-01-25T00:24:34;93917.50;;;7.64;74.52
52249;BME280;38541;48.130;8.378;2024-01-25T00:27:00;93918.38;;;7.58;74.26
52249;BME280;38541;48.130;8.378;2024-01-25T00:29:27;93933.72;;;7.48;75.38
52249;BME280;38541;48.130;8.378;2024-01-25T00:31:53;93939.13;;;7.53;75.68
52249;BME280;38541;48.130;8.378;2024-01-25T00:34:20;93932.13;;;7.47;76.34
52249;BME280;38541;48.130;8.378;2024-01-25T00:36:47;93925.28;;;7.46;76.34
52249;BME280;38541;48.130;8.378;2024-01-25T00:39:13;93922.97;;;7.37;76.63
52249;BME280;38541;48.130;8.378;2024-01-25T00:41:43;93925.34;;;7.39;76.47
52249;BME280;38541;48.130;8.378;2024-01-25T00:44:10;93907.28;;;7.37;76.81
52249;BME280;38541;48.130;8.378;2024-01-25T00:46:37;93910.31;;;7.34;77.04
52249;BME280;38541;48.130;8.378;2024-01-25T00:49:04;93912.13;;;7.34;76.87
52249;BME280;38541;48.130;8.378;2024-01-25T00:51:31;93904.50;;;7.32;77.06
52249;BME280;38541;48.130;8.378;2024-01-25T00:53:58;93917.22;;;7.22;77.88
52249;BME280;38541;48.130;8.378;2024-01-25T00:56:24;93915.63;;;7.21;77.88
52249;BME280;38541;48.130;8.378;2024-01-25T00:58:51;93910.66;;;7.12;79.85
52249;BME280;38541;48.130;8.378;2024-01-25T01:01:21;93919.50;;;7.11;79.70
52249;BME280;38541;48.130;8.378;2024-01-25T01:03:48;93913.13;;;7.00;79.95
52249;BME280;38541;48.130;8.378;2024-01-25T01:06:20;93913.53;;;6.97;80.17
52249;BME280;38541;48.130;8.378;2024-01-25T01:08:49;93892.66;;;6.97;80.05
52249;BME280;38541;48.130;8.378;2024-01-25T01:11:16;93899.06;;;7.02;80.38
52249;BME280;38541;48.130;8.378;2024-01-25T01:13:43;93900.88;;;7.01;80.16
52249;BME280;38541;48.130;8.378;2024-01-25T01:16:10;93900.69;;;7.03;79.97
52249;BME280;38541;48.130;8.378;2024-01-25T01:18:36;93908.50;;;7.03;80.52
52249;BME280;38541;48.130;8.378;2024-01-25T01:21:05;93902.03;;;7.05;80.69
52249;BME280;38541;48.130;8.378;2024-01-25T01:23:31;93900.28;;;6.99;80.32
52249;BME280;38541;48.130;8.378;2024-01-25T01:25:58;93890.22;;;7.03;80.40
52249;BME280;38541;48.130;8.378;2024-01-25T01:28:24;93891.00;;;7.03;80.67
52249;BME280;38541;48.130;8.378;2024-01-25T01:30:51;93876.34;;;7.02;80.58
52249;BME280;38541;48.130;8.378;2024-01-25T01:33:17;93890.84;;;6.98;80.28
52249;BME280;38541;48.130;8.378;2024-01-25T01:35:44;93884.03;;;6.97;80.18
52249;BME280;38541;48.130;8.378;2024-01-25T01:38:10;93889.47;;;6.89;80.54
52249;BME280;38541;48.130;8.378;2024-01-25T01:40:37;93889.47;;;6.89;80.65
52249;BME280;38541;48.130;8.378;2024-01-25T01:43:04;93883.44;;;6.95;80.44
52249;BME280;38541;48.130;8.378;2024-01-25T01:45:30;93883.63;;;6.93;80.74
52249;BME280;38541;48.130;8.378;2024-01-25T01:47:58;93882.19;;;6.97;80.72
52249;BME280;38541;48.130;8.378;2024-01-25T01:50:26;93885.19;;;7.01;80.80
52249;BME280;38541;48.130;8.378;2024-01-25T01:52:53;93883.88;;;6.92;80.98
52249;BME280;38541;48.130;8.378;2024-01-25T01:55:20;93888.28;;;6.91;81.40
52249;BME280;38541;48.130;8.378;2024-01-25T01:57:47;93886.25;;;6.93;81.72
52249;BME280;38541;48.130;8.378;2024-01-25T02:00:14;93891.28;;;6.95;81.75
52249;BME280;38541;48.130;8.378;2024-01-25T02:02:42;93889.28;;;6.90;82.02
52249;BME280;38541;48.130;8.378;2024-01-25T02:05:09;93879.03;;;6.89;82.31
52249;BME280;38541;48.130;8.378;2024-01-25T02:07:37;93887.69;;;6.89;82.65
52249;BME280;38541;48.130;8.378;2024-01-25T02:10:05;93882.03;;;6.92;82.95
52249;BME280;38541;48.130;8.378;2024-01-25T02:12:31;93887.66;;;6.96;82.94
52249;BME280;38541;48.130;8.378;2024-01-25T02:14:58;93887.06;;;6.94;82.97
52249;BME280;38541;48.130;8.378;2024-01-25T02:17:25;93877.19;;;6.96;83.00
52249;BME280;38541;48.130;8.378;2024-01-25T02:19:52;93886.06;;;6.95;82.96
52249;BME280;38541;48.130;8.378;2024-01-25T02:22:19;93889.03;;;6.98;82.61
52249;BME280;38541;48.130;8.378;2024-01-25T02:24:46;93895.84;;;6.99;82.49
52249;BME280;38541;48.130;8.378;2024-01-25T02:27:13;93881.78;;;7.00;82.97
52249;BME280;38541;48.130;8.378;2024-01-25T02:29:39;93893.47;;;6.98;82.74
52249;BME280;38541;48.130;8.378;2024-01-25T02:32:06;93884.19;;;7.02;83.08
52249;BME280;38541;48.130;8.378;2024-01-25T02:34:32;93890.03;;;6.97;82.91
52249;BME280;38541;48.130;8.378;2024-01-25T02:36:59;93899.28;;;7.00;82.79
52249;BME280;38541;48.130;8.378;2024-01-25T02:39:25;93898.69;;;6.98;82.57
52249;BME280;38541;48.130;8.378;2024-01-25T02:41:52;93901.50;;;6.96;82.88
52249;BME280;38541;48.130;8.378;2024-01-25T02:44:18;93890.25;;;6.96;82.96
52249;BME280;38541;48.130;8.378;2024-01-25T02:46:45;93895.44;;;7.03;82.86
52249;BME280;38541;48.130;8.378;2024-01-25T02:49:13;93901.88;;;7.00;82.84
52249;BME280;38541;48.130;8.378;2024-01-25T02:51:40;93893.03;;;7.01;82.76
52249;BME280;38541;48.130;8.378;2024-01-25T02:54:06;93895.28;;;6.91;82.74
52249;BME280;38541;48.130;8.378;2024-01-25T02:56:33;93884.47;;;6.87;82.77
52249;BME280;38541;48.130;8.378;2024-01-25T02:59:01;93881.47;;;6.83;81.91
52249;BME280;38541;48.130;8.378;2024-01-25T03:01:28;93879.03;;;6.89;82.74
52249;BME280;38541;48.130;8.378;2024-01-25T03:03:54;93865.97;;;6.89;81.81
52249;BME280;38541;48.130;8.378;2024-01-25T03:06:21;93871.84;;;6.84;81.66
52249;BME280;38541;48.130;8.378;2024-01-25T03:08:48;93874.22;;;6.85;81.67
52249;BME280;38541;48.130;8.378;2024-01-25T03:11:15;93882.91;;;6.79;81.42
52249;BME280;38541;48.130;8.378;2024-01-25T03:13:42;93877.13;;;6.70;81.48
52249;BME280;38541;48.130;8.378;2024-01-25T03:16:08;93869.94;;;6.66;81.72
52249;BME280;38541;48.130;8.378;2024-01-25T03:18:35;93864.53;;;6.61;81.97
52249;BME280;38541;48.130;8.378;2024-01-25T03:21:02;93866.13;;;6.62;82.12
52249;BME280;38541;48.130;8.378;2024-01-25T03:23:28;93874.13;;;6.67;82.12
52249;BME280;38541;48.130;8.378;2024-01-25T03:25:55;93865.13;;;6.63;81.89
52249;BME280;38541;48.130;8.378;2024-01-25T03:28:21;93872.53;;;6.66;82.26
52249;BME280;38541;48.130;8.378;2024-01-25T03:30:48;93857.56;;;6.54;82.43
52249;BME280;38541;48.130;8.378;2024-01-25T03:33:16;93861.94;;;6.61;82.17
52249;BME280;38541;48.130;8.378;2024-01-25T03:35:43;93866.56;;;6.59;82.29
52249;BME280;38541;48.130;8.378;2024-01-25T03:38:10;93873.97;;;6.62;82.98
52249;BME280;38541;48.130;8.378;2024-01-25T03:40:36;93874.94;;;6.67;82.15
52249;BME280;38541;48.130;8.378;2024-01-25T03:43:03;93875.94;;;6.73;82.50
52249;BME280;38541;48.130;8.378;2024-01-25T03:45:45;93874.94;;;6.67;82.07
52249;BME280;38541;48.130;8.378;2024-01-25T03:48:11;93877.16;;;6.64;82.90
52249;BME280;38541;48.130;8.378;2024-01-25T03:50:38;93889.25;;;6.51;82.68
52249;BME280;38541;48.130;8.378;2024-01-25T03:53:05;93878.78;;;6.58;82.67
52249;BME280;38541;48.130;8.378;2024-01-25T03:55:32;93899.72;;;6.51;82.72
52249;BME280;38541;48.130;8.378;2024-01-25T03:57:59;93900.09;;;6.62;82.64
52249;BME280;38541;48.130;8.378;2024-01-25T04:00:26;93897.63;;;6.67;82.13
52249;BME280;38541;48.130;8.378;2024-01-25T04:02:52;93897.63;;;6.67;82.02
52249;BME280;38541;48.130;8.378;2024-01-25T04:05:19;93888.00;;;6.67;81.82
52249;BME280;38541;48.130;8.378;2024-01-25T04:07:45;93893.09;;;6.55;81.86
52249;BME280;38541;48.130;8.378;2024-01-25T04:10:12;93896.47;;;6.63;81.93
52249;BME280;38541;48.130;8.378;2024-01-25T04:12:39;93897.50;;;6.55;81.51
52249;BME280;38541;48.130;8.378;2024-01-25T04:15:06;93908.78;;;6.49;81.58
52249;BME280;38541;48.130;8.378;2024-01-25T04:17:32;93920.66;;;6.45;81.48
52249;BME280;38541;48.130;8.378;2024-01-25T04:19:59;93918.63;;;6.47;81.70
52249;BME280;38541;48.130;8.378;2024-01-25T04:22:26;93900.13;;;6.48;81.66
52249;BME280;38541;48.130;8.378;2024-01-25T04:24:52;93889.66;;;6.55;81.85
52249;BME280;38541;48.130;8.378;2024-01-25T04:27:19;93903.69;;;6.61;81.44
52249;BME280;38541;48.130;8.378;2024-01-25T04:29:45;93916.16;;;6.59;81.67
52249;BME280;38541;48.130;8.378;2024-01-25T04:32:12;93915.31;;;6.65;81.44
52249;BME280;38541;48.130;8.378;2024-01-25T04:34:39;93916.19;;;6.52;81.16
52249;BME280;38541;48.130;8.378;2024-01-25T04:37:05;93919.00;;;6.50;81.42
52249;BME280;38541;48.130;8.378;2024-01-25T04:39:32;93924.41;;;6.55;81.78
52249;BME280;38541;48.130;8.378;2024-01-25T04:41:58;93924.59;;;6.61;81.78
52249;BME280;38541;48.130;8.378;2024-01-25T04:44:25;93939.81;;;6.70;81.40
52249;BME280;38541;48.130;8.378;2024-01-25T04:46:52;93959.28;;;6.75;81.48
52249;BME280;38541;48.130;8.378;2024-01-25T04:49:20;93954.75;;;6.56;81.53
52249;BME280;38541;48.130;8.378;2024-01-25T04:51:46;93949.28;;;6.65;81.47
52249;BME280;38541;48.130;8.378;2024-01-25T04:54:13;93955.91;;;6.61;81.61
52249;BME280;38541;48.130;8.378;2024-01-25T04:56:42;93965.94;;;6.64;81.46
52249;BME280;38541;48.130;8.378;2024-01-25T04:59:08;93960.75;;;6.50;81.21
52249;BME280;38541;48.130;8.378;2024-01-25T05:01:35;93964.81;;;6.39;82.32
52249;BME280;38541;48.130;8.378;2024-01-25T05:04:02;93970.44;;;6.43;82.46
52249;BME280;38541;48.130;8.378;2024-01-25T05:06:29;93959.56;;;6.53;82.03
52249;BME280;38541;48.130;8.378;2024-01-25T05:08:56;93968.56;;;6.64;81.63
52249;BME280;38541;48.130;8.378;2024-01-25T05:11:23;93973.53;;;6.72;81.69
52249;BME280;38541;48.130;8.378;2024-01-25T05:13:49;93966.75;;;6.64;81.42
52249;BME280;38541;48.130;8.378;2024-01-25T05:16:17;93967.56;;;6.65;81.34
52249;BME280;38541;48.130;8.378;2024-01-25T05:18:44;93976.19;;;6.65;81.25
52249;BME280;38541;48.130;8.378;2024-01-25T05:21:10;93983.41;;;6.70;80.91
52249;BME280;38541;48.130;8.378;2024-01-25T05:23:37;93975.59;;;6.63;80.88
52249;BME280;38541;48.130;8.378;2024-01-25T05:26:03;93979.19;;;6.69;80.97
52249;BME280;38541;48.130;8.378;2024-01-25T05:28:30;93972.00;;;6.64;80.69
52249;BME280;38541;48.130;8.378;2024-01-25T05:30:57;93974.34;;;6.73;80.27
52249;BME280;38541;48.130;8.378;2024-01-25T05:33:23;93977.38;;;6.69;80.54
52249;BME280;38541;48.130;8.378;2024-01-25T05:35:50;93977.66;;;6.54;80.12
52249;BME280;38541;48.130;8.378;2024-01-25T05:38:16;93973.81;;;6.50;80.33
52249;BME280;38541;48.130;8.378;2024-01-25T05:40:43;93976.81;;;6.61;80.67
52249;BME280;38541;48.130;8.378;2024-01-25T05:43:10;93975.59;;;6.63;80.47
52249;BME280;38541;48.130;8.378;2024-01-25T05:45:36;93966.97;;;6.56;80.46
52249;BME280;38541;48.130;8.378;2024-01-25T05:48:03;93971.56;;;6.67;80.61
52249;BME280;38541;48.130;8.378;2024-01-25T05:50:30;93968.97;;;6.67;80.11
52249;BME280;38541;48.130;8.378;2024-01-25T05:52:56;93969.56;;;6.63;79.89
52249;BME280;38541;48.130;8.378;2024-01-25T05:55:23;93964.53;;;6.68;79.90
52249;BME280;38541;48.130;8.378;2024-01-25T05:57:49;93969.19;;;6.52;79.66
52249;BME280;38541;48.130;8.378;2024-01-25T06:00:16;93963.19;;;6.45;80.48
52249;BME280;38541;48.130;8.378;2024-01-25T06:02:47;93963.78;;;6.47;80.39
52249;BME280;38541;48.130;8.378;2024-01-25T06:05:13;93977.44;;;6.42;80.38
52249;BME280;38541;48.130;8.378;2024-01-25T06:07:41;93973.63;;;6.52;81.26
52249;BME280;38541;48.130;8.378;2024-01-25T06:10:09;93971.22;;;6.50;80.43
52249;BME280;38541;48.130;8.378;2024-01-25T06:12:35;93972.00;;;6.57;80.91
52249;BME280;38541;48.130;8.378;2024-01-25T06:15:02;93984.44;;;6.62;80.40
52249;BME280;38541;48.130;8.378;2024-01-25T06:17:30;93982.22;;;6.66;80.15
52249;BME280;38541;48.130;8.378;2024-01-25T06:19:56;93988.84;;;6.62;80.20
52249;BME280;38541;48.130;8.378;2024-01-25T06:22:23;93982.25;;;6.52;80.41
52249;BME280;38541;48.130;8.378;2024-01-25T06:24:50;93991.09;;;6.51;80.40
52249;BME280;38541;48.130;8.378;2024-01-25T06:27:16;93988.28;;;6.53;80.57
52249;BME280;38541;48.130;8.378;2024-01-25T06:29:43;93996.91;;;6.53;81.08
52249;BME280;38541;48.130;8.378;2024-01-25T06:32:10;93994.94;;;6.49;80.38
52249;BME280;38541;48.130;8.378;2024-01-25T06:34:44;93988.72;;;6.43;80.59
52249;BME280;38541;48.130;8.378;2024-01-25T06:37:11;93984.53;;;6.28;80.23
52249;BME280;38541;48.130;8.378;2024-01-25T06:39:42;93980.72;;;6.31;80.48
52249;BME280;38541;48.130;8.378;2024-01-25T06:42:08;93982.91;;;6.27;80.65
52249;BME280;38541;48.130;8.378;2024-01-25T06:44:35;93976.28;;;6.32;80.54
52249;BME280;38541;48.130;8.378;2024-01-25T06:47:01;93979.88;;;6.31;80.25
52249;BME280;38541;48.130;8.378;2024-01-25T06:49:28;93972.47;;;6.27;80.51
52249;BME280;38541;48.130;8.378;2024-01-25T06:51:54;93967.66;;;6.31;80.52
52249;BME280;38541;48.130;8.378;2024-01-25T06:54:21;93970.44;;;6.36;80.74
52249;BME280;38541;48.130;8.378;2024-01-25T06:56:47;93971.66;;;6.34;80.39
52249;BME280;38541;48.130;8.378;2024-01-25T06:59:14;93974.06;;;6.35;80.56
52249;BME280;38541;48.130;8.378;2024-01-25T07:01:41;93969.63;;;6.42;80.46
52249;BME280;38541;48.130;8.378;2024-01-25T07:04:08;93972.03;;;6.44;80.45
52249;BME280;38541;48.130;8.378;2024-01-25T07:06:35;93978.03;;;6.51;80.71
52249;BME280;38541;48.130;8.378;2024-01-25T07:09:02;93978.84;;;6.59;80.23
52249;BME280;38541;48.130;8.378;2024-01-25T07:11:29;93981.81;;;6.62;80.12
52249;BME280;38541;48.130;8.378;2024-01-25T07:13:55;93985.25;;;6.63;80.37
52249;BME280;38541;48.130;8.378;2024-01-25T07:16:22;93989.84;;;6.74;80.26
52249;BME280;38541;48.130;8.378;2024-01-25T07:18:50;93995.66;;;6.76;79.34
52249;BME280;38541;48.130;8.378;2024-01-25T07:21:17;93991.19;;;6.83;79.46
52249;BME280;38541;48.130;8.378;2024-01-25T07:23:43;93995.38;;;6.91;79.22
52249;BME280;38541;48.130;8.378;2024-01-25T07:26:16;94003.03;;;6.93;79.47
52249;BME280;38541;48.130;8.378;2024-01-25T07:28:43;93994.53;;;6.97;79.02
52249;BME280;38541;48.130;8.378;2024-01-25T07:31:09;94000.41;;;6.93;79.14
52249;BME280;38541;48.130;8.378;2024-01-25T07:33:36;93993.94;;;6.95;79.05
52249;BME280;38541;48.130;8.378;2024-01-25T07:36:03;94001.59;;;6.97;78.98
52249;BME280;38541;48.130;8.378;2024-01-25T07:38:30;94009.59;;;7.02;78.42
52249;BME280;38541;48.130;8.378;2024-01-25T07:40:56;94003.81;;;6.93;78.28
52249;BME280;38541;48.130;8.378;2024-01-25T07:43:23;94004.88;;;6.72;77.67
52249;BME280;38541;48.130;8.378;2024-01-25T07:45:50;94005.72;;;6.66;77.77
52249;BME280;38541;48.130;8.378;2024-01-25T07:48:19;94003.94;;;6.53;77.44
52249;BME280;38541;48.130;8.378;2024-01-25T07:50:46;94008.16;;;6.47;77.92
52249;BME280;38541;48.130;8.378;2024-01-25T07:53:13;94010.78;;;6.47;77.82
52249;BME280;38541;48.130;8.378;2024-01-25T07:55:41;94005.97;;;6.44;77.93
52249;BME280;38541;48.130;8.378;2024-01-25T07:58:07;93998.75;;;6.39;78.05
52249;BME280;38541;48.130;8.378;2024-01-25T08:00:34;94003.34;;;6.51;78.44
52249;BME280;38541;48.130;8.378;2024-01-25T08:03:00;94011.78;;;6.53;78.23
52249;BME280;38541;48.130;8.378;2024-01-25T08:05:27;94012.97;;;6.50;77.90
52249;BME280;38541;48.130;8.378;2024-01-25T08:08:09;94012.56;;;6.60;78.18
52249;BME280;38541;48.130;8.378;2024-01-25T08:10:36;94020.97;;;6.69;77.82
52249;BME280;38541;48.130;8.378;2024-01-25T08:13:03;94031.41;;;6.76;77.74
52249;BME280;38541;48.130;8.378;2024-01-25T08:15:33;94023.16;;;6.79;77.82
52249;BME280;38541;48.130;8.378;2024-01-25T08:18:00;94031.63;;;6.67;77.81
52249;BME280;38541;48.130;8.378;2024-01-25T08:20:27;94039.03;;;6.77;77.69
52249;BME280;38541;48.130;8.378;2024-01-25T08:22:54;94024.13;;;6.84;78.24
52249;BME280;38541;48.130;8.378;2024-01-25T08:25:20;94028.16;;;6.87;78.12
52249;BME280;38541;48.130;8.378;2024-01-25T08:27:47;94026.13;;;6.89;77.81
52249;BME280;38541;48.130;8.378;2024-01-25T08:30:14;94030.53;;;6.95;78.02
52249;BME280;38541;48.130;8.378;2024-01-25T08:32:40;94033.31;;;7.00;78.10
52249;BME280;38541;48.130;8.378;2024-01-25T08:35:07;94033.72;;;7.04;77.47
52249;BME280;38541;48.130;8.378;2024-01-25T08:37:34;94030.91;;;7.06;77.55
52249;BME280;38541;48.130;8.378;2024-01-25T08:40:04;94035.47;;;7.10;77.65
52249;BME280;38541;48.130;8.378;2024-01-25T08:42:33;94032.25;;;7.15;77.32
52249;BME280;38541;48.130;8.378;2024-01-25T08:44:59;94034.66;;;7.23;77.18
52249;BME280;38541;48.130;8.378;2024-01-25T08:47:26;94037.03;;;7.25;77.39
52249;BME280;38541;48.130;8.378;2024-01-25T08:49:53;94036.03;;;7.26;77.48
52249;BME280;38541;48.130;8.378;2024-01-25T08:52:19;94035.00;;;7.27;77.37
52249;BME280;38541;48.130;8.378;2024-01-25T08:54:46;94033.59;;;7.31;77.60
52249;BME280;38541;48.130;8.378;2024-01-25T08:57:12;94028.97;;;7.33;77.46
52249;BME280;38541;48.130;8.378;2024-01-25T08:59:41;94034.19;;;7.33;77.39
52249;BME280;38541;48.130;8.378;2024-01-25T09:02:07;94039.00;;;7.36;77.47
52249;BME280;38541;48.130;8.378;2024-01-25T09:04:35;94032.34;;;7.40;76.94
52249;BME280;38541;48.130;8.378;2024-01-25T09:07:03;94029.88;;;7.46;77.21
52249;BME280;38541;48.130;8.378;2024-01-25T09:09:30;94029.06;;;7.52;nan
52249;BME280;38541;48.130;8.378;2024-01-25T09:11:56;94027.22;;;7.52;77.16
52249;BME280;38541;48.130;8.378;2024-01-25T09:14:23;94039.09;;;7.55;76.77
52249;BME280;38541;48.130;8.378;2024-01-25T09:16:49;94038.09;;;7.56;77.03
52249;BME280;38541;48.130;8.378;2024-01-25T09:19:16;94037.91;;;7.51;77.20
52249;BME280;38541;48.130;8.378;2024-01-25T09:21:43;94044.31;;;7.55;76.86
52249;BME280;38541;48.130;8.378;2024-01-25T09:24:10;94044.50;;;7.60;76.74
52249;BME280;38541;48.130;8.378;2024-01-25T09:26:36;94042.00;;;7.72;77.06
52249;BME280;38541;48.130;8.378;2024-01-25T09:29:03;94045.00;;;7.76;77.18
52249;BME280;38541;48.130;8.378;2024-01-25T09:31:31;94040.94;;;7.80;76.65
52249;BME280;38541;48.130;8.378;2024-01-25T09:33:58;94040.50;;;7.83;76.55
52249;BME280;38541;48.130;8.378;2024-01-25T09:36:25;94052.19;;;7.87;76.48
52249;BME280;38541;48.130;8.378;2024-01-25T09:38:51;94053.34;;;7.91;76.71
52249;BME280;38541;48.130;8.378;2024-01-25T09:41:18;94053.34;;;7.91;77.26
52249;BME280;38541;48.130;8.378;2024-01-25T09:43:45;94050.94;;;7.90;76.93
52249;BME280;38541;48.130;8.378;2024-01-25T09:46:13;94052.06;;;8.00;77.29
52249;BME280;38541;48.130;8.378;2024-01-25T09:48:43;94060.88;;;8.06;76.74
52249;BME280;38541;48.130;8.378;2024-01-25T09:51:12;94065.69;;;8.09;77.08
52249;BME280;38541;48.130;8.378;2024-01-25T09:53:40;94075.81;;;8.06;76.41
52249;BME280;38541;48.130;8.378;2024-01-25T09:56:12;94066.06;;;8.13;76.36
52249;BME280;38541;48.130;8.378;2024-01-25T09:58:40;94075.91;;;8.18;76.82
52249;BME280;38541;48.130;8.378;2024-01-25T10:01:13;94069.44;;;8.20;76.73
52249;BME280;38541;48.130;8.378;2024-01-25T10:03:47;94079.69;;;8.22;75.97
52249;BME280;38541;48.130;8.378;2024-01-25T10:06:15;94071.56;;;8.30;76.23
52249;BME280;38541;48.130;8.378;2024-01-25T10:08:43;94076.38;;;8.33;76.65
52249;BME280;38541;48.130;8.378;2024-01-25T10:11:10;94063.22;;;8.40;76.60
52249;BME280;38541;48.130;8.378;2024-01-25T10:13:41;94059.78;;;8.46;75.82
52249;BME280;38541;48.130;8.378;2024-01-25T10:16:12;94063.16;;;8.53;76.29
52249;BME280;38541;48.130;8.378;2024-01-25T10:18:40;94060.53;;;8.53;76.22
52249;BME280;38541;48.130;8.378;2024-01-25T10:21:11;94057.63;;;8.62;76.02
52249;BME280;38541;48.130;8.378;2024-01-25T10:23:39;94059.81;;;8.65;75.81
52249;BME280;38541;48.130;8.378;2024-01-25T10:26:10;94056.91;;;8.73;76.00
52249;BME280;38541;48.130;8.378;2024-01-25T10:28:37;94057.63;;;8.80;75.90
52249;BME280;38541;48.130;8.378;2024-01-25T10:31:04;94058.88;;;8.96;76.32
52249;BME280;38541;48.130;8.378;2024-01-25T10:33:33;94048.34;;;9.03;75.63
52249;BME280;38541;48.130;8.378;2024-01-25T10:36:01;94041.75;;;9.12;75.55
52249;BME280;38541;48.130;8.378;2024-01-25T10:38:34;94042.56;;;9.13;75.12
52249;BME280;38541;48.130;8.378;2024-01-25T10:41:04;94045.91;;;9.02;74.84
52249;BME280;38541;48.130;8.378;2024-01-25T10:43:31;94029.81;;;8.98;75.45
52249;BME280;38541;48.130;8.378;2024-01-25T10:45:59;94037.69;;;8.98;75.35
52249;BME280;38541;48.130;8.378;2024-01-25T10:48:30;94024.06;;;8.89;75.03
52249;BME280;38541;48.130;8.378;2024-01-25T10:50:57;94029.81;;;8.98;75.48
52249;BME280;38541;48.130;8.378;2024-01-25T10:53:27;94033.44;;;9.16;75.81
52249;BME280;38541;48.130;8.378;2024-01-25T10:55:56;94030.25;;;9.13;75.39
52249;BME280;38541;48.130;8.378;2024-01-25T10:58:22;94029.75;;;9.05;75.61
52249;BME280;38541;48.130;8.378;2024-01-25T11:00:54;94023.66;;;8.92;75.65
52249;BME280;38541;48.130;8.378;2024-01-25T11:03:26;94017.28;;;9.00;75.81
52249;BME280;38541;48.130;8.378;2024-01-25T11:06:23;94020.72;;;9.01;75.08
52249;BME280;38541;48.130;8.378;2024-01-25T11:08:50;94019.50;;;8.84;75.24
52249;BME280;38541;48.130;8.378;2024-01-25T11:11:17;94007.78;;;8.87;76.64
52249;BME280;38541;48.130;8.378;2024-01-25T11:13:44;94011.28;;;8.99;76.31
52249;BME280;38541;48.130;8.378;2024-01-25T11:16:31;94011.19;;;9.06;75.67
52249;BME280;38541;48.130;8.378;2024-01-25T11:19:00;94007.38;;;9.21;76.30
52249;BME280;38541;48.130;8.378;2024-01-25T11:21:39;94007.38;;;9.21;75.40
52249;BME280;38541;48.130;8.378;2024-01-25T11:24:23;93998.91;;;9.19;74.89
52249;BME280;38541;48.130;8.378;2024-01-25T11:26:54;94005.22;;;8.99;75.40
52249;BME280;38541;48.130;8.378;2024-01-25T11:29:21;93999.25;;;8.92;75.51
52249;BME280;38541;48.130;8.378;2024-01-25T11:31:53;94003.47;;;8.93;75.37
52249;BME280;38541;48.130;8.378;2024-01-25T11:34:19;93998.38;;;8.98;75.73
52249;BME280;38541;48.130;8.378;2024-01-25T11:36:47;93993.97;;;9.29;76.15
52249;BME280;38541;48.130;8.378;2024-01-25T11:39:16;93991.94;;;9.12;75.23
52249;BME280;38541;48.130;8.378;2024-01-25T11:41:44;93991.25;;;8.87;75.55
52249;BME280;38541;48.130;8.378;2024-01-25T11:44:11;93995.34;;;8.82;76.35
52249;BME280;38541;48.130;8.378;2024-01-25T11:46:38;93988.06;;;8.84;76.17
52249;BME280;38541;48.130;8.378;2024-01-25T11:49:05;93986.03;;;8.87;76.41
52249;BME280;38541;48.130;8.378;2024-01-25T11:51:33;93983.50;;;9.10;76.53
52249;BME280;38541;48.130;8.378;2024-01-25T11:54:00;93975.38;;;9.31;76.07
52249;BME280;38541;48.130;8.378;2024-01-25T11:56:29;93968.44;;;9.36;75.88
52249;BME280;38541;48.130;8.378;2024-01-25T11:58:57;93971.09;;;9.18;75.51
52249;BME280;38541;48.130;8.378;2024-01-25T12:01:25;93963.69;;;9.14;75.93
52249;BME280;38541;48.130;8.378;2024-01-25T12:03:52;93961.34;;;9.25;76.05
52249;BME280;38541;48.130;8.378;2024-01-25T12:06:19;93958.84;;;9.30;76.20
52249;BME280;38541;48.130;8.378;2024-01-25T12:08:46;93943.09;;;9.30;76.36
52249;BME280;38541;48.130;8.378;2024-01-25T12:11:14;93939.81;;;9.35;76.31
52249;BME280;38541;48.130;8.378;2024-01-25T12:13:42;93935.56;;;9.22;75.48
52249;BME280;38541;48.130;8.378;2024-01-25T12:16:10;93941.38;;;9.24;76.36
52249;BME280;38541;48.130;8.378;2024-01-25T12:18:38;93939.97;;;9.52;75.78
52249;BME280;38541;48.130;8.378;2024-01-25T12:21:05;93942.41;;;9.65;74.85
52249;BME280;38541;48.130;8.378;2024-01-25T12:23:36;93932.25;;;9.81;74.61
52249;BME280;38541;48.130;8.378;2024-01-25T12:26:05;93931.00;;;9.83;74.66
52249;BME280;38541;48.130;8.378;2024-01-25T12:28:32;93937.72;;;9.67;74.69
52249;BME280;38541;48.130;8.378;2024-01-25T12:31:00;93929.38;;;9.59;74.62
52249;BME280;38541;48.130;8.378;2024-01-25T12:33:27;93933.31;;;9.37;75.37
52249;BME280;38541;48.130;8.378;2024-01-25T12:35:55;93928.97;;;9.31;76.00
52249;BME280;38541;48.130;8.378;2024-01-25T12:38:22;93932.16;;;9.33;76.75
52249;BME280;38541;48.130;8.378;2024-01-25T12:40:50;93930.88;;;9.66;77.09
52249;BME280;38541;48.130;8.378;2024-01-25T12:43:18;93915.44;;;9.46;75.68
52249;BME280;38541;48.130;8.378;2024-01-25T12:45:45;93921.94;;;9.44;76.36
52249;BME280;38541;48.130;8.378;2024-01-25T12:48:12;93918.28;;;9.45;76.27
52249;BME280;38541;48.130;8.378;2024-01-25T12:50:39;93917.94;;;9.41;76.30
52249;BME280;38541;48.130;8.378;2024-01-25T12:53:07;93914.66;;;9.46;75.79
52249;BME280;38541;48.130;8.378;2024-01-25T12:55:34;93909.59;;;9.32;76.46
52249;BME280;38541;48.130;8.378;2024-01-25T12:58:02;93913.94;;;9.38;76.05
52249;BME280;38541;48.130;8.378;2024-01-25T13:00:29;93904.84;;;9.53;76.65
52249;BME280;38541;48.130;8.378;2024-01-25T13:02:56;93894.69;;;9.68;76.13
52249;BME280;38541;48.130;8.378;2024-01-25T13:05:23;93899.16;;;9.80;75.70
52249;BME280;38541;48.130;8.378;2024-01-25T13:07:50;93910.81;;;9.84;75.18
52249;BME280;38541;48.130;8.378;2024-01-25T13:10:17;93902.00;;;9.90;75.12